SWA996 KBUR-KLAX
Flight info
| Callsign | SWA996 |
|---|---|
| Flight time | 0h 15m |
| Altitude | 5000 |
| Route | BURP4 |
| Aircraft | B737/M-SDE2E3FGHIRWXY/LB1 |
Departure
| Time | 2026-04-20 21:53 |
|---|---|
| Airport | Hollywood Burbank/Bob Hope Airport (KBUR) |
Arrival
| Time | 2026-04-20 22:08 |
|---|---|
| Airport | Los Angeles International Airport (KLAX) |
| Time | Latitude | Longitude | Altitude | Speed | Heading |
|---|---|---|---|---|---|
| 2026-04-20 21:42 | 34.19717 | -118.35112 | 685 ft | 1 kts | 271° |
| 2026-04-20 21:46 | 34.19717 | -118.35130 | 691 ft | 4 kts | 272° |
| 2026-04-20 21:46 | 34.19720 | -118.35180 | 692 ft | 8 kts | 274° |
| 2026-04-20 21:47 | 34.19719 | -118.35256 | 695 ft | 10 kts | 270° |
| 2026-04-20 21:47 | 34.19719 | -118.35269 | 695 ft | 11 kts | 270° |
| 2026-04-20 21:47 | 34.19720 | -118.35292 | 695 ft | 11 kts | 271° |
| 2026-04-20 21:48 | 34.19721 | -118.35396 | 694 ft | 14 kts | 271° |
| 2026-04-20 21:48 | 34.19749 | -118.35503 | 696 ft | 15 kts | 339° |
| 2026-04-20 21:48 | 34.19846 | -118.35529 | 694 ft | 14 kts | 347° |
| 2026-04-20 21:48 | 34.19952 | -118.35558 | 695 ft | 18 kts | 347° |
| 2026-04-20 21:49 | 34.20091 | -118.35597 | 701 ft | 22 kts | 347° |
| 2026-04-20 21:49 | 34.20240 | -118.35638 | 714 ft | 21 kts | 347° |
| 2026-04-20 21:49 | 34.20381 | -118.35677 | 717 ft | 20 kts | 347° |
| 2026-04-20 21:49 | 34.20514 | -118.35713 | 724 ft | 19 kts | 347° |
| 2026-04-20 21:50 | 34.20642 | -118.35748 | 730 ft | 19 kts | 347° |
| 2026-04-20 21:50 | 34.20767 | -118.35782 | 740 ft | 18 kts | 347° |
| 2026-04-20 21:50 | 34.20888 | -118.35815 | 749 ft | 18 kts | 347° |
| 2026-04-20 21:50 | 34.21005 | -118.35846 | 754 ft | 17 kts | 348° |
| 2026-04-20 21:51 | 34.21107 | -118.35875 | 765 ft | 7 kts | 341° |
| 2026-04-20 21:51 | 34.21143 | -118.35895 | 768 ft | 6 kts | 321° |
| 2026-04-20 21:51 | 34.21172 | -118.35928 | 771 ft | 6 kts | 308° |
| 2026-04-20 21:51 | 34.21196 | -118.35965 | 772 ft | 6 kts | 308° |
| 2026-04-20 21:52 | 34.21215 | -118.36003 | 773 ft | 5 kts | 278° |
| 2026-04-20 21:52 | 34.21191 | -118.36032 | 772 ft | 6 kts | 181° |
| 2026-04-20 21:52 | 34.21139 | -118.36022 | 771 ft | 12 kts | 168° |
| 2026-04-20 21:52 | 34.20772 | -118.35924 | 742 ft | 98 kts | 167° |
| 2026-04-20 21:53 | 34.19958 | -118.35740 | 1070 ft | 127 kts | 175° |
| 2026-04-20 21:53 | 34.19087 | -118.35435 | 1825 ft | 139 kts | 147° |
| 2026-04-20 21:53 | 34.18225 | -118.34731 | 2314 ft | 165 kts | 158° |
| 2026-04-20 21:53 | 34.17147 | -118.33868 | 2731 ft | 209 kts | 131° |
| 2026-04-20 21:54 | 34.16388 | -118.32204 | 3078 ft | 254 kts | 108° |
| 2026-04-20 21:54 | 34.15917 | -118.30073 | 4122 ft | 263 kts | 105° |
| 2026-04-20 21:54 | 34.15474 | -118.27900 | 4850 ft | 269 kts | 106° |
| 2026-04-20 21:54 | 34.14989 | -118.25687 | 4969 ft | 273 kts | 106° |
| 2026-04-20 21:55 | 34.14505 | -118.23490 | 4980 ft | 270 kts | 106° |
| 2026-04-20 21:55 | 34.14021 | -118.21306 | 4988 ft | 269 kts | 107° |
| 2026-04-20 21:55 | 34.13544 | -118.19136 | 4970 ft | 266 kts | 106° |
| 2026-04-20 21:55 | 34.13071 | -118.16993 | 4969 ft | 262 kts | 108° |
| 2026-04-20 21:56 | 34.12616 | -118.14867 | 4980 ft | 262 kts | 106° |
| 2026-04-20 21:56 | 34.12156 | -118.12730 | 4959 ft | 263 kts | 105° |
| 2026-04-20 21:56 | 34.11694 | -118.10619 | 4992 ft | 265 kts | 107° |
| 2026-04-20 21:56 | 34.11216 | -118.08466 | 4995 ft | 267 kts | 106° |
| 2026-04-20 21:57 | 34.10728 | -118.06279 | 5018 ft | 271 kts | 105° |
| 2026-04-20 21:57 | 34.10221 | -118.04024 | 5011 ft | 284 kts | 107° |
| 2026-04-20 21:57 | 34.09682 | -118.01678 | 4996 ft | 292 kts | 107° |
| 2026-04-20 21:57 | 34.09148 | -117.99329 | 4984 ft | 286 kts | 106° |
| 2026-04-20 21:58 | 34.08656 | -117.97086 | 4975 ft | 269 kts | 106° |
| 2026-04-20 21:58 | 34.08189 | -117.94921 | 4982 ft | 265 kts | 107° |
| 2026-04-20 21:58 | 34.07637 | -117.92796 | 4979 ft | 265 kts | 120° |
| 2026-04-20 21:58 | 34.06455 | -117.91167 | 4992 ft | 264 kts | 147° |
| 2026-04-20 21:59 | 34.04740 | -117.90398 | 4984 ft | 266 kts | 174° |
| 2026-04-20 21:59 | 34.02922 | -117.90708 | 4995 ft | 265 kts | 201° |
| 2026-04-20 21:59 | 34.01453 | -117.92015 | 4983 ft | 265 kts | 230° |
| 2026-04-20 21:59 | 34.00611 | -117.93983 | 4981 ft | 265 kts | 249° |
| 2026-04-20 22:00 | 34.00042 | -117.96047 | 4963 ft | 251 kts | 250° |
| 2026-04-20 22:00 | 33.99661 | -117.98023 | 4980 ft | 234 kts | 257° |
| 2026-04-20 22:00 | 33.99426 | -117.99922 | 4961 ft | 225 kts | 261° |
| 2026-04-20 22:00 | 33.99227 | -118.01775 | 4971 ft | 221 kts | 261° |
| 2026-04-20 22:01 | 33.99031 | -118.03636 | 4988 ft | 227 kts | 260° |
| 2026-04-20 22:01 | 33.98831 | -118.05530 | 4977 ft | 229 kts | 261° |
| 2026-04-20 22:01 | 33.98631 | -118.07423 | 4979 ft | 228 kts | 261° |
| 2026-04-20 22:01 | 33.98432 | -118.09315 | 4970 ft | 228 kts | 259° |
| 2026-04-20 22:02 | 33.98228 | -118.11238 | 4759 ft | 234 kts | 259° |
| 2026-04-20 22:02 | 33.98023 | -118.13175 | 4444 ft | 231 kts | 261° |
| 2026-04-20 22:02 | 33.97825 | -118.15077 | 4145 ft | 226 kts | 259° |
| 2026-04-20 22:02 | 33.97632 | -118.16915 | 3875 ft | 222 kts | 261° |
| 2026-04-20 22:03 | 33.97437 | -118.18762 | 3588 ft | 221 kts | 262° |
| 2026-04-20 22:03 | 33.97247 | -118.20584 | 3312 ft | 216 kts | 261° |
| 2026-04-20 22:03 | 33.97066 | -118.22311 | 3037 ft | 198 kts | 261° |
| 2026-04-20 22:03 | 33.96904 | -118.23876 | 2792 ft | 178 kts | 261° |
| 2026-04-20 22:04 | 33.96758 | -118.25279 | 2561 ft | 160 kts | 261° |
| 2026-04-20 22:04 | 33.96627 | -118.26533 | 2376 ft | 140 kts | 261° |
| 2026-04-20 22:04 | 33.96517 | -118.27596 | 2204 ft | 118 kts | 260° |
| 2026-04-20 22:04 | 33.96418 | -118.28532 | 2011 ft | 111 kts | 259° |
| 2026-04-20 22:05 | 33.96364 | -118.29428 | 1890 ft | 108 kts | 264° |
| 2026-04-20 22:05 | 33.96257 | -118.30316 | 1754 ft | 107 kts | 257° |
| 2026-04-20 22:05 | 33.96150 | -118.31184 | 1620 ft | 101 kts | 258° |
| 2026-04-20 22:05 | 33.96054 | -118.32049 | 1478 ft | 107 kts | 259° |
| 2026-04-20 22:06 | 33.95959 | -118.32941 | 1324 ft | 110 kts | 257° |
| 2026-04-20 22:06 | 33.95851 | -118.33866 | 1193 ft | 110 kts | 262° |
| 2026-04-20 22:06 | 33.95767 | -118.34780 | 1039 ft | 109 kts | 264° |
| 2026-04-20 22:06 | 33.95677 | -118.35677 | 895 ft | 110 kts | 261° |
| 2026-04-20 22:07 | 33.95581 | -118.36610 | 714 ft | 113 kts | 262° |
| 2026-04-20 22:07 | 33.95490 | -118.37500 | 588 ft | 101 kts | 261° |
| 2026-04-20 22:07 | 33.95395 | -118.38358 | 454 ft | 104 kts | 264° |
| 2026-04-20 22:07 | 33.95311 | -118.39238 | 310 ft | 106 kts | 264° |
| 2026-04-20 22:08 | 33.95238 | -118.40103 | 176 ft | 103 kts | 262° |
| 2026-04-20 22:08 | 33.95131 | -118.40980 | 92 ft | 99 kts | 262° |
| 2026-04-20 22:08 | 33.95056 | -118.41679 | 93 ft | 67 kts | 263° |
| 2026-04-20 22:08 | 33.95001 | -118.42086 | 93 ft | 32 kts | 243° |
| 2026-04-20 22:09 | 33.94934 | -118.42198 | 94 ft | 13 kts | 227° |
| 2026-04-20 22:09 | 33.94883 | -118.42253 | 94 ft | 3 kts | 218° |
| 2026-04-20 22:09 | 33.94883 | -118.42254 | 94 ft | 0 kts | 218° |
| 2026-04-20 22:10 | 33.94872 | -118.42262 | 95 ft | 7 kts | 211° |
| 2026-04-20 22:10 | 33.94785 | -118.42278 | 95 ft | 18 kts | 176° |
| 2026-04-20 22:11 | 33.94690 | -118.42184 | 93 ft | 21 kts | 88° |
| 2026-04-20 22:11 | 33.94706 | -118.42007 | 93 ft | 21 kts | 83° |
| 2026-04-20 22:11 | 33.94723 | -118.41841 | 92 ft | 20 kts | 83° |
| 2026-04-20 22:11 | 33.94739 | -118.41680 | 92 ft | 19 kts | 83° |
| 2026-04-20 22:12 | 33.94755 | -118.41523 | 93 ft | 18 kts | 83° |
| 2026-04-20 22:12 | 33.94782 | -118.41376 | 94 ft | 18 kts | 76° |
| 2026-04-20 22:12 | 33.94802 | -118.41231 | 93 ft | 17 kts | 81° |
| 2026-04-20 22:12 | 33.94813 | -118.41091 | 94 ft | 17 kts | 86° |
| 2026-04-20 22:13 | 33.94825 | -118.40956 | 94 ft | 16 kts | 81° |
| 2026-04-20 22:13 | 33.94840 | -118.40827 | 94 ft | 15 kts | 83° |
| 2026-04-20 22:13 | 33.94852 | -118.40702 | 93 ft | 15 kts | 83° |
| 2026-04-20 22:13 | 33.94863 | -118.40584 | 94 ft | 14 kts | 80° |
| 2026-04-20 22:14 | 33.94876 | -118.40470 | 94 ft | 13 kts | 83° |
| 2026-04-20 22:14 | 33.94887 | -118.40361 | 93 ft | 13 kts | 82° |
| 2026-04-20 22:14 | 33.94861 | -118.40295 | 92 ft | 9 kts | 156° |
| 2026-04-20 22:14 | 33.94796 | -118.40268 | 92 ft | 10 kts | 169° |
| 2026-04-20 22:15 | 33.94743 | -118.40259 | 92 ft | 6 kts | 172° |
| 2026-04-20 22:15 | 33.94721 | -118.40252 | 92 ft | 3 kts | 156° |
| 2026-04-20 22:15 | 33.94710 | -118.40235 | 91 ft | 3 kts | 110° |
| 2026-04-20 22:15 | 33.94714 | -118.40226 | 92 ft | 1 kts | 58° |
| 2026-04-20 22:16 | 33.94719 | -118.40213 | 92 ft | 2 kts | 71° |
| 2026-04-20 22:16 | 33.94720 | -118.40203 | 92 ft | 1 kts | 78° |
| 2026-04-20 22:16 | 33.94722 | -118.40196 | 92 ft | 1 kts | 80° |
| 2026-04-20 22:16 | 33.94723 | -118.40187 | 92 ft | 0 kts | 82° |
| 2026-04-20 22:17 | 33.94723 | -118.40185 | 92 ft | 0 kts | 82° |